createdAt,value
2018-09-20T00:00:30.976Z,20.94
2018-09-20T00:02:59.364Z,20.88
2018-09-20T00:05:27.813Z,20.58
2018-09-20T00:07:56.176Z,20.60
2018-09-20T00:10:24.540Z,20.52
2018-09-20T00:12:52.892Z,20.71
2018-09-20T00:15:22.099Z,20.50
2018-09-20T00:17:50.495Z,20.23
2018-09-20T00:20:18.854Z,19.95
2018-09-20T00:22:47.218Z,20.01
2018-09-20T00:25:15.588Z,19.92
2018-09-20T00:27:43.951Z,20.22
2018-09-20T00:30:12.336Z,19.79
2018-09-20T00:32:40.683Z,19.68
2018-09-20T00:35:09.104Z,19.82
2018-09-20T00:37:37.491Z,19.99
2018-09-20T00:40:06.044Z,20.11
2018-09-20T00:42:34.439Z,20.32
2018-09-20T00:45:02.842Z,20.50
2018-09-20T00:47:31.899Z,20.34
2018-09-20T00:50:00.690Z,20.48
2018-09-20T00:52:29.430Z,20.23
2018-09-20T00:54:57.857Z,20.12
2018-09-20T00:57:26.195Z,20.00
2018-09-20T00:59:54.695Z,19.85
2018-09-20T01:02:23.132Z,19.78
2018-09-20T01:04:51.496Z,20.00
2018-09-20T01:07:19.907Z,19.80
2018-09-20T01:09:48.346Z,19.82
2018-09-20T01:12:16.820Z,19.74
2018-09-20T01:14:45.124Z,19.34
2018-09-20T01:17:13.681Z,19.47
2018-09-20T01:19:42.075Z,19.74
2018-09-20T01:22:10.799Z,19.79
2018-09-20T01:24:39.341Z,19.69
2018-09-20T01:27:08.342Z,19.41
2018-09-20T01:29:37.340Z,19.68
2018-09-20T01:32:06.236Z,19.62
2018-09-20T01:34:34.932Z,19.78
2018-09-20T01:37:04.266Z,19.51
2018-09-20T01:39:32.694Z,19.31
2018-09-20T01:42:01.157Z,19.40
2018-09-20T01:44:29.560Z,19.19
2018-09-20T01:46:58.003Z,19.03
2018-09-20T01:49:26.420Z,19.22
2018-09-20T01:51:55.122Z,19.23
2018-09-20T01:54:23.544Z,19.18
2018-09-20T01:56:52.066Z,18.78
2018-09-20T01:59:20.548Z,18.68
2018-09-20T02:01:48.960Z,18.98
2018-09-20T02:04:17.464Z,18.80
2018-09-20T02:06:46.164Z,18.50
2018-09-20T02:09:14.669Z,18.54
2018-09-20T02:11:43.072Z,18.73
2018-09-20T02:14:11.617Z,18.76
2018-09-20T02:16:40.007Z,18.62
2018-09-20T02:19:08.564Z,18.46
2018-09-20T02:21:36.971Z,18.55
2018-09-20T02:24:05.369Z,18.64
2018-09-20T02:26:33.842Z,18.26
2018-09-20T02:29:02.283Z,18.38
2018-09-20T02:31:30.761Z,18.39
2018-09-20T02:33:59.276Z,18.21
2018-09-20T02:36:27.695Z,18.36
2018-09-20T02:38:56.221Z,18.34
2018-09-20T02:41:24.724Z,18.26
2018-09-20T02:43:53.267Z,17.96
2018-09-20T02:46:21.683Z,18.03
2018-09-20T02:48:50.077Z,18.12
2018-09-20T02:51:18.477Z,18.09
2018-09-20T02:53:46.920Z,17.78
2018-09-20T02:56:15.373Z,18.10
2018-09-20T02:58:43.755Z,18.10
2018-09-20T03:01:12.226Z,18.08
2018-09-20T03:03:40.709Z,18.03
2018-09-20T03:06:09.135Z,18.03
2018-09-20T03:08:37.463Z,17.72
2018-09-20T03:11:06.037Z,17.72
2018-09-20T03:13:34.475Z,17.55
2018-09-20T03:16:02.747Z,17.52
2018-09-20T03:18:31.261Z,17.58
2018-09-20T03:20:59.659Z,17.73
2018-09-20T03:23:27.965Z,17.66
2018-09-20T03:25:56.310Z,17.55
2018-09-20T03:28:24.692Z,17.46
2018-09-20T03:30:53.222Z,17.62
2018-09-20T03:33:21.386Z,17.33
2018-09-20T03:35:49.856Z,17.61
2018-09-20T03:38:18.202Z,17.80
2018-09-20T03:40:46.609Z,17.57
2018-09-20T03:43:14.974Z,17.43
2018-09-20T03:45:43.354Z,17.22
2018-09-20T03:48:11.694Z,17.46
2018-09-20T03:50:40.167Z,17.09
2018-09-20T03:53:08.536Z,17.25
2018-09-20T03:55:36.981Z,17.50
2018-09-20T03:58:05.413Z,17.32
2018-09-20T04:00:33.855Z,17.42
2018-09-20T04:03:02.336Z,17.26
2018-09-20T04:05:30.748Z,17.45
2018-09-20T04:07:59.199Z,17.30
2018-09-20T04:10:27.732Z,17.40
2018-09-20T04:12:56.127Z,17.16
2018-09-20T04:15:24.599Z,17.24
2018-09-20T04:17:52.978Z,17.23
2018-09-20T04:20:21.428Z,17.13
2018-09-20T04:23:19.138Z,17.02
2018-09-20T04:25:47.482Z,17.13
2018-09-20T04:28:15.781Z,17.09
2018-09-20T04:30:44.091Z,17.21
2018-09-20T04:33:12.450Z,17.10
2018-09-20T04:35:40.807Z,16.99
2018-09-20T04:38:10.247Z,17.09
2018-09-20T04:40:38.580Z,16.56
2018-09-20T04:43:07.031Z,16.68
2018-09-20T04:45:35.298Z,16.85
2018-09-20T04:48:03.563Z,16.91
2018-09-20T04:50:31.811Z,16.81
2018-09-20T04:53:00.074Z,16.98
2018-09-20T04:55:28.360Z,17.11
2018-09-20T04:57:56.691Z,16.90
2018-09-20T05:00:24.966Z,17.14
2018-09-20T05:02:53.295Z,17.00
2018-09-20T05:05:21.591Z,16.87
2018-09-20T05:07:49.985Z,16.80
2018-09-20T05:10:18.478Z,17.03
2018-09-20T05:12:47.079Z,17.00
2018-09-20T05:15:15.460Z,16.75
2018-09-20T05:17:44.030Z,16.58
2018-09-20T05:20:12.782Z,16.85
2018-09-20T05:22:41.650Z,17.06
2018-09-20T05:25:10.121Z,17.15
2018-09-20T05:27:39.080Z,16.97
2018-09-20T05:30:07.984Z,16.84
2018-09-20T05:32:36.755Z,16.84
2018-09-20T05:35:05.209Z,16.88
2018-09-20T05:37:34.622Z,17.29
2018-09-20T05:40:03.077Z,17.43
2018-09-20T05:42:31.449Z,17.36
2018-09-20T05:44:59.819Z,17.38
2018-09-20T05:47:28.583Z,17.34
2018-09-20T05:49:57.076Z,17.36
2018-09-20T05:52:25.500Z,17.29
2018-09-20T05:54:53.897Z,17.61
2018-09-20T05:57:22.182Z,17.73
2018-09-20T05:59:50.539Z,17.99
2018-09-20T06:02:18.837Z,17.87
2018-09-20T06:04:47.126Z,18.17
2018-09-20T06:07:15.368Z,18.31
2018-09-20T06:09:43.679Z,18.50
2018-09-20T06:12:11.991Z,18.40
2018-09-20T06:14:40.291Z,18.48
2018-09-20T06:17:08.615Z,18.93
2018-09-20T06:19:37.037Z,18.92
2018-09-20T06:22:05.533Z,19.03
2018-09-20T06:24:33.991Z,19.60
2018-09-20T06:27:02.428Z,20.92
2018-09-20T06:29:30.845Z,22.68
2018-09-20T06:31:59.334Z,22.72
2018-09-20T06:34:27.872Z,24.11
2018-09-20T06:36:56.366Z,25.31
2018-09-20T06:39:24.735Z,25.90
2018-09-20T06:41:53.179Z,26.43
2018-09-20T06:44:21.640Z,26.83
2018-09-20T06:46:50.135Z,27.24
2018-09-20T06:49:18.547Z,26.50
2018-09-20T06:51:46.984Z,26.59
2018-09-20T06:54:15.415Z,27.76
2018-09-20T06:56:43.943Z,28.42
2018-09-20T06:59:12.274Z,28.78
2018-09-20T07:01:40.738Z,28.37
2018-09-20T07:04:09.131Z,28.16
2018-09-20T07:06:37.422Z,27.14
2018-09-20T07:09:08.930Z,26.85
2018-09-20T07:11:37.453Z,25.77
2018-09-20T07:14:05.843Z,26.84
2018-09-20T07:16:34.304Z,27.42
2018-09-20T07:19:03.005Z,27.48
2018-09-20T07:21:31.384Z,27.24
2018-09-20T07:23:59.811Z,27.94
2018-09-20T07:26:29.709Z,28.19
2018-09-20T07:28:58.183Z,29.25
2018-09-20T07:31:26.601Z,29.03
2018-09-20T07:33:55.029Z,28.94
2018-09-20T07:36:23.438Z,29.80
2018-09-20T07:38:51.839Z,29.84
2018-09-20T07:41:20.323Z,29.58
2018-09-20T07:43:48.745Z,30.49
2018-09-20T07:46:17.121Z,31.77
2018-09-20T07:48:45.537Z,31.82
2018-09-20T07:51:13.931Z,31.73
2018-09-20T07:53:42.378Z,31.30
2018-09-20T07:56:10.730Z,29.81
2018-09-20T07:58:39.122Z,29.44
2018-09-20T08:01:07.474Z,27.40
2018-09-20T08:03:35.940Z,25.85
2018-09-20T08:06:04.402Z,25.92
2018-09-20T08:08:32.756Z,25.98
2018-09-20T08:11:01.155Z,26.34
2018-09-20T08:13:29.554Z,26.06
2018-09-20T08:15:57.996Z,28.15
2018-09-20T08:18:26.392Z,29.69
2018-09-20T08:20:54.848Z,29.60
2018-09-20T08:23:23.284Z,30.35
2018-09-20T08:25:51.675Z,29.95
2018-09-20T08:28:20.063Z,30.24
2018-09-20T08:30:48.619Z,30.86
2018-09-20T08:33:17.036Z,31.58
2018-09-20T08:35:45.462Z,31.37
2018-09-20T08:38:13.888Z,30.85
2018-09-20T08:40:42.306Z,30.30
2018-09-20T08:43:10.707Z,30.80
2018-09-20T08:45:39.158Z,31.33
2018-09-20T08:48:07.544Z,32.22
2018-09-20T08:50:35.950Z,32.11
2018-09-20T08:53:04.380Z,31.73
2018-09-20T08:55:32.815Z,32.00
2018-09-20T08:58:01.317Z,32.16
2018-09-20T09:00:29.786Z,31.51
2018-09-20T09:02:58.296Z,32.15
2018-09-20T09:05:26.720Z,32.92
2018-09-20T09:07:55.102Z,32.45
2018-09-20T09:10:23.491Z,32.88
2018-09-20T09:12:51.924Z,32.66
2018-09-20T09:15:20.309Z,32.51
2018-09-20T09:17:48.715Z,32.46
2018-09-20T09:20:17.205Z,33.35
2018-09-20T09:22:45.606Z,33.42
2018-09-20T09:25:14.013Z,32.73
2018-09-20T09:27:42.394Z,33.05
2018-09-20T09:30:11.145Z,32.29
2018-09-20T09:32:39.458Z,32.95
2018-09-20T09:35:07.880Z,33.34
2018-09-20T09:37:36.247Z,33.42
2018-09-20T09:40:04.676Z,33.34
2018-09-20T09:42:33.039Z,32.98
2018-09-20T09:45:01.431Z,32.93
2018-09-20T09:47:29.898Z,32.16
2018-09-20T09:49:58.284Z,31.71
2018-09-20T09:52:26.684Z,31.40
2018-09-20T09:54:55.120Z,31.64
2018-09-20T09:57:23.568Z,32.59
2018-09-20T09:59:52.017Z,32.69
2018-09-20T10:02:20.506Z,32.04
2018-09-20T10:04:48.879Z,31.63
2018-09-20T10:07:17.479Z,31.54
2018-09-20T10:09:45.915Z,32.92
2018-09-20T10:12:14.377Z,32.72
2018-09-20T10:14:42.750Z,32.87
2018-09-20T10:17:11.087Z,31.93
2018-09-20T10:19:39.464Z,31.18
2018-09-20T10:22:07.821Z,31.00
2018-09-20T10:24:36.273Z,31.66
2018-09-20T10:27:04.676Z,30.65
2018-09-20T10:29:33.096Z,31.07
2018-09-20T10:32:01.511Z,31.57
2018-09-20T10:34:29.934Z,30.55
2018-09-20T10:36:58.331Z,31.10
2018-09-20T10:39:26.876Z,31.12
2018-09-20T10:41:55.315Z,32.60
2018-09-20T10:44:23.799Z,31.75
2018-09-20T10:46:52.214Z,31.67
2018-09-20T10:49:20.632Z,31.65
2018-09-20T10:51:49.133Z,31.76
2018-09-20T10:54:17.585Z,32.31
2018-09-20T10:56:45.973Z,32.88
2018-09-20T10:59:14.389Z,33.68
2018-09-20T11:01:42.790Z,32.13
2018-09-20T11:04:11.190Z,32.37
2018-09-20T11:06:39.612Z,32.34
2018-09-20T11:09:08.812Z,32.35
2018-09-20T11:11:37.222Z,31.48
2018-09-20T11:14:05.652Z,31.25
2018-09-20T11:16:34.143Z,31.73
2018-09-20T11:19:02.578Z,31.64
2018-09-20T11:21:31.111Z,30.82
2018-09-20T11:23:59.554Z,30.99
2018-09-20T11:26:27.943Z,31.62
2018-09-20T11:28:56.389Z,32.23
2018-09-20T11:31:24.863Z,31.65
2018-09-20T11:33:53.276Z,32.31
2018-09-20T11:36:21.943Z,33.18
2018-09-20T11:38:50.310Z,33.37
2018-09-20T11:41:18.723Z,32.29
2018-09-20T11:43:47.126Z,31.58
2018-09-20T11:46:15.523Z,31.47
2018-09-20T11:48:43.939Z,31.03
2018-09-20T11:51:12.299Z,30.93
2018-09-20T11:53:40.734Z,30.49
2018-09-20T11:56:09.114Z,30.72
2018-09-20T11:58:37.523Z,31.04
2018-09-20T12:01:05.963Z,31.52
2018-09-20T12:03:34.379Z,31.37
2018-09-20T12:06:02.803Z,31.92
2018-09-20T12:08:31.210Z,31.34
2018-09-20T12:10:59.619Z,32.34
2018-09-20T12:13:28.028Z,32.64
2018-09-20T12:15:56.423Z,31.71
2018-09-20T12:18:24.851Z,31.04
2018-09-20T12:20:53.299Z,30.49
2018-09-20T12:23:21.738Z,29.97
2018-09-20T12:25:50.287Z,30.14
2018-09-20T12:28:18.636Z,29.81
2018-09-20T12:30:47.006Z,30.23
2018-09-20T12:33:15.347Z,30.25
2018-09-20T12:35:43.977Z,30.00
2018-09-20T12:38:12.216Z,29.56
2018-09-20T12:40:40.559Z,29.54
2018-09-20T12:43:09.011Z,28.96
2018-09-20T12:45:37.402Z,29.32
2018-09-20T12:48:05.831Z,29.20
2018-09-20T12:50:34.281Z,29.15
2018-09-20T12:53:02.546Z,28.48
2018-09-20T12:55:30.948Z,28.76
2018-09-20T12:57:59.330Z,29.16
2018-09-20T13:00:27.736Z,30.50
2018-09-20T13:02:56.112Z,30.20
2018-09-20T13:05:24.494Z,29.91
2018-09-20T13:07:52.898Z,29.62
2018-09-20T13:10:21.268Z,29.83
2018-09-20T13:12:49.658Z,29.01
2018-09-20T13:15:18.016Z,29.29
2018-09-20T13:17:46.388Z,28.81
2018-09-20T13:20:14.828Z,28.53
2018-09-20T13:22:43.169Z,28.99
2018-09-20T13:25:11.628Z,28.67
2018-09-20T13:27:40.012Z,29.33
2018-09-20T13:30:08.608Z,29.07
2018-09-20T13:32:37.133Z,28.65
2018-09-20T13:35:05.676Z,29.33
2018-09-20T13:40:18.547Z,29.19
2018-09-20T13:42:47.869Z,29.24
2018-09-20T13:45:16.181Z,28.72
2018-09-20T13:47:44.619Z,28.89
2018-09-20T13:50:13.046Z,28.27
2018-09-20T13:52:41.544Z,27.97
2018-09-20T13:55:10.054Z,28.29
2018-09-20T13:57:38.494Z,28.02
2018-09-20T14:00:09.356Z,28.67
2018-09-20T14:02:38.059Z,28.85
2018-09-20T14:05:08.576Z,28.33
2018-09-20T14:07:37.214Z,28.89
2018-09-20T14:10:06.669Z,28.86
2018-09-20T14:12:35.176Z,28.68
2018-09-20T14:15:03.628Z,28.80
2018-09-20T14:17:32.127Z,28.49
2018-09-20T14:20:01.551Z,28.84
2018-09-20T14:22:30.004Z,29.16
2018-09-20T14:24:58.474Z,29.08
2018-09-20T14:27:26.884Z,28.93
2018-09-20T14:29:55.455Z,29.07
2018-09-20T14:32:23.929Z,28.99
2018-09-20T14:34:53.443Z,28.78
2018-09-20T14:37:21.963Z,29.07
2018-09-20T14:39:50.387Z,28.40
2018-09-20T14:42:18.910Z,28.18
2018-09-20T14:44:47.571Z,27.82
2018-09-20T14:47:19.590Z,28.41
2018-09-20T14:49:48.123Z,28.99
2018-09-20T14:52:16.632Z,28.33
2018-09-20T14:54:45.153Z,27.99
2018-09-20T14:57:13.630Z,28.29
2018-09-20T14:59:42.062Z,28.47
2018-09-20T15:02:10.480Z,27.99
2018-09-20T15:04:38.883Z,27.46
2018-09-20T15:07:07.340Z,28.65
2018-09-20T15:09:35.829Z,27.91
2018-09-20T15:12:05.292Z,28.17
2018-09-20T15:14:34.719Z,28.24
2018-09-20T15:17:09.831Z,28.81
2018-09-20T15:19:38.200Z,28.30
2018-09-20T15:22:06.835Z,28.41
2018-09-20T15:24:35.350Z,28.35
2018-09-20T15:27:04.603Z,29.03
2018-09-20T15:29:32.958Z,28.32
2018-09-20T15:32:01.361Z,27.78
2018-09-20T15:34:29.779Z,28.11
2018-09-20T15:36:58.153Z,28.12
2018-09-20T15:39:28.547Z,28.27
2018-09-20T15:41:56.988Z,28.25
2018-09-20T15:44:25.510Z,28.08
2018-09-20T15:46:53.923Z,28.25
2018-09-20T15:49:22.383Z,27.83
2018-09-20T15:51:51.008Z,28.57
2018-09-20T15:54:19.392Z,28.34
2018-09-20T15:56:47.677Z,28.44
2018-09-20T15:59:15.981Z,27.79
2018-09-20T16:01:44.431Z,28.00
2018-09-20T16:04:12.962Z,28.10
2018-09-20T16:06:41.543Z,27.73
2018-09-20T16:09:11.408Z,28.17
2018-09-20T16:11:40.016Z,28.83
2018-09-20T16:14:08.666Z,28.71
2018-09-20T16:16:37.071Z,27.86
2018-09-20T16:19:06.444Z,27.86
2018-09-20T16:21:34.878Z,28.06
2018-09-20T16:24:03.251Z,28.52
2018-09-20T16:26:31.642Z,27.54
2018-09-20T16:29:12.927Z,26.85
2018-09-20T16:33:56.512Z,26.94
2018-09-20T16:36:32.551Z,27.40
2018-09-20T16:39:08.007Z,27.66
2018-09-20T16:41:39.371Z,27.64
2018-09-20T16:44:07.846Z,27.23
2018-09-20T16:46:36.230Z,27.26
2018-09-20T16:49:04.725Z,26.61
2018-09-20T16:51:34.193Z,26.70
2018-09-20T16:54:03.653Z,26.85
2018-09-20T16:56:32.102Z,26.72
2018-09-20T16:59:00.553Z,27.79
2018-09-20T17:01:28.972Z,27.11
2018-09-20T17:03:57.450Z,27.08
2018-09-20T17:06:25.915Z,27.19
2018-09-20T17:08:54.379Z,27.04
2018-09-20T17:11:22.876Z,26.74
2018-09-20T17:13:51.315Z,27.26
2018-09-20T17:16:29.863Z,26.82
2018-09-20T17:18:58.255Z,26.54
2018-09-20T17:21:26.690Z,26.35
2018-09-20T17:23:55.122Z,26.29
2018-09-20T17:26:23.550Z,26.02
2018-09-20T17:28:51.958Z,25.66
2018-09-20T17:31:20.483Z,25.53
2018-09-20T17:33:48.919Z,25.40
2018-09-20T17:36:17.486Z,24.79
2018-09-20T17:38:47.302Z,25.00
2018-09-20T17:41:19.439Z,24.55
2018-09-20T17:43:50.102Z,24.60
2018-09-20T17:46:18.553Z,24.27
2018-09-20T17:48:46.931Z,24.02
2018-09-20T17:51:16.307Z,24.25
2018-09-20T17:53:45.183Z,24.01
2018-09-20T17:56:13.977Z,23.73
2018-09-20T17:58:43.058Z,23.94
2018-09-20T18:01:11.523Z,23.93
2018-09-20T18:03:40.000Z,24.05
2018-09-20T18:06:08.456Z,23.87
2018-09-20T18:08:36.939Z,23.40
2018-09-20T18:11:05.364Z,23.55
2018-09-20T18:13:33.903Z,23.28
2018-09-20T18:16:02.342Z,23.76
2018-09-20T18:18:30.838Z,24.10
2018-09-20T18:20:59.284Z,24.28
2018-09-20T18:23:27.627Z,23.87
2018-09-20T18:25:56.037Z,23.59
2018-09-20T18:28:24.963Z,24.36
2018-09-20T18:30:54.028Z,24.57
2018-09-20T18:33:22.640Z,23.98
2018-09-20T18:35:57.697Z,24.00
2018-09-20T18:38:26.160Z,24.22
2018-09-20T18:40:54.594Z,24.34
2018-09-20T18:43:23.024Z,24.48
2018-09-20T18:45:51.464Z,24.37
2018-09-20T18:48:19.895Z,24.52
2018-09-20T18:50:48.357Z,24.44
2018-09-20T18:53:16.807Z,24.62
2018-09-20T18:55:45.463Z,24.63
2018-09-20T18:58:13.890Z,24.92
2018-09-20T19:00:42.320Z,24.92
2018-09-20T19:03:10.785Z,24.67
2018-09-20T19:05:39.216Z,24.62
2018-09-20T19:08:07.626Z,24.42
2018-09-20T19:10:36.049Z,24.88
2018-09-20T19:13:04.509Z,24.83
2018-09-20T19:15:32.976Z,24.50
2018-09-20T19:18:01.408Z,24.25
2018-09-20T19:20:29.787Z,24.21
2018-09-20T19:22:58.179Z,24.45
2018-09-20T19:25:26.616Z,24.41
2018-09-20T19:27:55.083Z,24.65
2018-09-20T19:30:23.555Z,24.12
2018-09-20T19:32:51.974Z,24.80
2018-09-20T19:35:20.473Z,24.49
2018-09-20T19:37:48.884Z,24.42
2018-09-20T19:40:17.362Z,23.63
2018-09-20T19:42:45.730Z,24.27
2018-09-20T19:45:14.162Z,24.39
2018-09-20T19:47:42.734Z,24.28
2018-09-20T19:50:11.130Z,24.57
2018-09-20T19:52:39.535Z,24.10
2018-09-20T19:55:07.968Z,24.00
2018-09-20T19:57:36.396Z,24.14
2018-09-20T20:00:04.991Z,24.38
2018-09-20T20:02:33.411Z,24.37
2018-09-20T20:05:01.902Z,24.43
2018-09-20T20:07:30.360Z,24.05
2018-09-20T20:09:58.838Z,24.28
2018-09-20T20:12:27.223Z,24.23
2018-09-20T20:14:55.671Z,24.31
2018-09-20T20:17:24.092Z,24.17
2018-09-20T20:19:52.754Z,23.91
2018-09-20T20:22:21.087Z,24.13
2018-09-20T20:24:49.614Z,23.89
2018-09-20T20:27:18.107Z,24.19
2018-09-20T20:29:46.628Z,24.41
2018-09-20T20:32:15.156Z,24.37
2018-09-20T20:34:43.555Z,23.86
2018-09-20T20:37:11.926Z,23.63
2018-09-20T20:39:40.400Z,24.11
2018-09-20T20:42:08.642Z,23.90
2018-09-20T20:44:37.056Z,24.47
2018-09-20T20:47:05.442Z,24.45
2018-09-20T20:49:33.843Z,24.02
2018-09-20T20:52:02.260Z,24.09
2018-09-20T20:54:30.684Z,23.63
2018-09-20T20:56:59.067Z,24.07
2018-09-20T20:59:27.392Z,23.44
2018-09-20T21:01:55.736Z,23.54
2018-09-20T21:04:24.078Z,23.62
2018-09-20T21:06:52.429Z,23.72
2018-09-20T21:09:20.804Z,23.55
2018-09-20T21:11:49.160Z,23.51
2018-09-20T21:14:17.506Z,23.66
2018-09-20T21:16:45.807Z,23.56
2018-09-20T21:19:14.159Z,24.00
2018-09-20T21:21:42.513Z,23.96
2018-09-20T21:24:10.852Z,23.50
2018-09-20T21:26:39.214Z,23.72
2018-09-20T21:29:07.536Z,23.77
2018-09-20T21:31:35.875Z,24.03
2018-09-20T21:34:04.210Z,23.61
2018-09-20T21:36:32.526Z,23.68
2018-09-20T21:39:00.872Z,23.80
2018-09-20T21:41:29.236Z,23.69
2018-09-20T21:43:57.623Z,23.95
2018-09-20T21:46:25.938Z,23.47
2018-09-20T21:48:54.299Z,23.57
2018-09-20T21:51:22.650Z,23.51
2018-09-20T21:53:51.987Z,23.72
2018-09-20T21:56:20.356Z,23.48
2018-09-20T21:58:48.740Z,23.35
2018-09-20T22:01:17.062Z,23.66
2018-09-20T22:03:45.423Z,23.42
2018-09-20T22:06:13.751Z,23.34
2018-09-20T22:08:42.206Z,23.61
2018-09-20T22:11:10.570Z,23.49
2018-09-20T22:13:38.970Z,23.65
2018-09-20T22:16:07.370Z,23.56
2018-09-20T22:18:35.726Z,23.63
2018-09-20T22:21:04.173Z,23.59
2018-09-20T22:23:32.515Z,23.46
2018-09-20T22:26:00.899Z,23.37
2018-09-20T22:28:29.320Z,23.12
2018-09-20T22:30:57.725Z,23.60
2018-09-20T22:33:26.094Z,23.02
2018-09-20T22:35:54.481Z,23.31
2018-09-20T22:38:22.891Z,23.58
2018-09-20T22:40:51.316Z,23.63
2018-09-20T22:43:19.606Z,23.58
2018-09-20T22:45:48.056Z,23.62
2018-09-20T22:48:16.432Z,23.73
2018-09-20T22:50:44.828Z,23.74
2018-09-20T22:53:13.207Z,23.71
2018-09-20T22:55:41.639Z,23.51
2018-09-20T22:58:10.009Z,23.86
2018-09-20T23:00:38.428Z,24.03
2018-09-20T23:03:06.870Z,23.43
2018-09-20T23:05:35.263Z,23.77
2018-09-20T23:08:03.612Z,23.90
2018-09-20T23:10:31.934Z,23.67
2018-09-20T23:13:00.349Z,24.03
2018-09-20T23:15:28.747Z,23.83
2018-09-20T23:17:57.088Z,23.75
2018-09-20T23:20:25.490Z,23.48
2018-09-20T23:22:53.873Z,24.11
2018-09-20T23:25:22.228Z,23.43
2018-09-20T23:27:50.612Z,23.89
2018-09-20T23:30:19.190Z,24.05
2018-09-20T23:32:47.494Z,23.42
2018-09-20T23:35:15.852Z,24.02
2018-09-20T23:37:44.296Z,23.55
2018-09-20T23:40:12.724Z,23.54
2018-09-20T23:42:41.356Z,23.34
2018-09-20T23:45:09.666Z,23.65
2018-09-20T23:47:38.110Z,24.10
2018-09-20T23:50:06.419Z,23.67
2018-09-20T23:52:34.694Z,23.55
2018-09-20T23:55:03.018Z,23.72
2018-09-20T23:57:31.347Z,23.70
2018-09-20T23:59:59.670Z,23.53
